Coral Topaz — 3ELB7 — position and weather

sailwx.info

Track history (hours):
 
Tides and Currents Weather Stations Pressure Air Temp Water Temp Dewpoint Dewpoint Depression Visibility Wind Speed Wind Dir Waves Ship Positions

Coral Topaz

Last reported at 2015-Mar-07 06:26 UTC. Time now 2015-Apr-01 04:38 UTC.
Position S 26°10' E 153°52'.
Warning: this ship's position is 24 days out of date.

Length 225 m; draft 12.3 m.

Type: Ship. MMSI: 372904000.

Date/timePositionNaut miles runAvg speedWind from/ knotsBaromVisibWave heightAir tempDewpointWater temp
2015-Mar-07 06:26S 26°10' E 153°52'2412.5
2015-Mar-07 04:30S 26°34' E 153°49'1212.4
2015-Mar-07 03:33S 26°46' E 153°47'1312.4
2015-Mar-07 02:30S 26°59' E 153°45'1111.7
2015-Mar-07 01:33S 27°10' E 153°44'1210.9
2015-Mar-07 00:27S 27°22' E 153°42'910.4
2015-Mar-06 23:33S 27°31' E 153°41'1010.5
2015-Mar-06 22:34S 27°41' E 153°40'1010.1
2015-Mar-06 21:33S 27°51' E 153°40'1010.4
2015-Mar-06 20:33S 28°01' E 153°42'1210.6
2015-Mar-06 19:25S 28°13' E 153°45'26810.0
2015-Mar-05 16:33S 32°35' E 152°40'1010.0
2015-Mar-05 15:34S 32°43' E 152°32'10 9.6
2015-Mar-05 14:33S 32°51' E 152°26'9 9.2
2015-Mar-05 13:33S 32°58' E 152°19'7 6.7
2015-Mar-05 12:33S 33°01' E 152°12'6 6.3
2015-Mar-05 11:34S 32°59' E 152°05'6 6.3
2015-Mar-05 10:33S 32°57' E 151°58'7 7.5
2015-Mar-05 09:33S 32°56' E 151°49'4 3.5
2015-Mar-05 08:33S 32°53' E 151°46'0 0.0
2015-Mar-04 23:32S 32°53' E 151°46'0 0.0
2015-Mar-04 22:32S 32°53' E 151°46'0 0.0
2015-Mar-04 21:32S 32°53' E 151°46'0 0.0
2015-Mar-04 20:32S 32°53' E 151°46'0 0.0
2015-Mar-04 18:32S 32°53' E 151°46'0 0.0
2015-Mar-04 17:32S 32°53' E 151°46'0 0.0
2015-Mar-04 16:32S 32°53' E 151°46'0 0.0
2015-Mar-04 13:33S 32°53' E 151°46'5 5.4
2015-Mar-04 12:33S 32°57' E 151°51'8 7.6
2015-Mar-04 11:33S 33°04' E 151°50'1111.2
2015-Mar-04 10:33S 33°15' E 151°45'  
2015-Feb-28 08:33S 33°21' E 151°37'9 8.5
2015-Feb-28 07:27S 33°23' E 151°48'1213.4
2015-Feb-28 06:33S 33°25' E 152°02'12 1.3
2015-Feb-27 21:33S 33°18' E 152°14'2411.2
2015-Feb-27 19:26S 33°33' E 151°51'15 1.8
2015-Feb-27 11:27S 33°43' E 151°38'39 1.3
2015-Feb-26 06:30S 33°17' E 152°13'1212.9
2015-Feb-26 05:33S 33°09' E 152°03'6 5.6
2015-Feb-26 04:31S 33°05' E 151°57'1 1.0
2015-Feb-26 03:31S 33°06' E 151°58'1 1.2
2015-Feb-26 02:31S 33°07' E 151°59'1 1.2
2015-Feb-26 01:31S 33°08' E 151°60'1 1.4
2015-Feb-26 00:31S 33°09' E 152°01'1 1.4
2015-Feb-25 23:31S 33°11' E 152°01'1 0.7
2015-Feb-25 22:31S 33°11' E 152°01'1 1.0
2015-Feb-25 21:31S 33°12' E 152°02'1 1.2
2015-Feb-25 20:31S 33°13' E 152°03'1 1.3
2015-Feb-25 19:31S 33°13' E 152°05'1 1.2
2015-Feb-25 18:28S 33°13' E 152°06'1 0.9
2015-Feb-25 17:28S 33°13' E 152°07'1 0.7
2015-Feb-25 16:31S 33°13' E 152°08'1 0.8
2015-Feb-25 15:31S 33°14' E 152°09'1 1.0
2015-Feb-25 14:31S 33°14' E 152°10'1 1.0
2015-Feb-25 13:31S 33°15' E 152°11'1 1.0
2015-Feb-25 12:31S 33°15' E 152°12'1 0.9
2015-Feb-25 11:31S 33°16' E 152°13'1 0.8
2015-Feb-25 10:31S 33°16' E 152°13'4 3.6
2015-Feb-25 09:30S 33°20' E 152°13'  
Track history (hours):
 
Tides and Currents Weather Stations Pressure Air Temp Water Temp Dewpoint Dewpoint Depression Visibility Wind Speed Wind Dir Waves Ship Positions

Coral Topaz

Last reported at 2015-Mar-07 06:26 UTC. Time now 2015-Apr-01 04:38 UTC.
Position S 26°10' E 153°52'.
Warning: this ship's position is 24 days out of date.

Length 225 m; draft 12.3 m.

Type: Ship. MMSI: 372904000.

Date/timePositionNaut miles runAvg speedWind from/ knotsBaromVisibWave heightAir tempDewpointWater temp
2015-Mar-07 06:26S 26°10' E 153°52'2412.5
2015-Mar-07 04:30S 26°34' E 153°49'1212.4
2015-Mar-07 03:33S 26°46' E 153°47'1312.4
2015-Mar-07 02:30S 26°59' E 153°45'1111.7
2015-Mar-07 01:33S 27°10' E 153°44'1210.9
2015-Mar-07 00:27S 27°22' E 153°42'910.4
2015-Mar-06 23:33S 27°31' E 153°41'1010.5
2015-Mar-06 22:34S 27°41' E 153°40'1010.1
2015-Mar-06 21:33S 27°51' E 153°40'1010.4
2015-Mar-06 20:33S 28°01' E 153°42'1210.6
2015-Mar-06 19:25S 28°13' E 153°45'26810.0
2015-Mar-05 16:33S 32°35' E 152°40'1010.0
2015-Mar-05 15:34S 32°43' E 152°32'10 9.6
2015-Mar-05 14:33S 32°51' E 152°26'9 9.2
2015-Mar-05 13:33S 32°58' E 152°19'7 6.7
2015-Mar-05 12:33S 33°01' E 152°12'6 6.3
2015-Mar-05 11:34S 32°59' E 152°05'6 6.3
2015-Mar-05 10:33S 32°57' E 151°58'7 7.5
2015-Mar-05 09:33S 32°56' E 151°49'4 3.5
2015-Mar-05 08:33S 32°53' E 151°46'0 0.0
2015-Mar-04 23:32S 32°53' E 151°46'0 0.0
2015-Mar-04 22:32S 32°53' E 151°46'0 0.0
2015-Mar-04 21:32S 32°53' E 151°46'0 0.0
2015-Mar-04 20:32S 32°53' E 151°46'0 0.0
2015-Mar-04 18:32S 32°53' E 151°46'0 0.0
2015-Mar-04 17:32S 32°53' E 151°46'0 0.0
2015-Mar-04 16:32S 32°53' E 151°46'0 0.0
2015-Mar-04 13:33S 32°53' E 151°46'5 5.4
2015-Mar-04 12:33S 32°57' E 151°51'8 7.6
2015-Mar-04 11:33S 33°04' E 151°50'1111.2
2015-Mar-04 10:33S 33°15' E 151°45'  
2015-Feb-28 08:33S 33°21' E 151°37'9 8.5
2015-Feb-28 07:27S 33°23' E 151°48'1213.4
2015-Feb-28 06:33S 33°25' E 152°02'12 1.3
2015-Feb-27 21:33S 33°18' E 152°14'2411.2
2015-Feb-27 19:26S 33°33' E 151°51'15 1.8
2015-Feb-27 11:27S 33°43' E 151°38'39 1.3
2015-Feb-26 06:30S 33°17' E 152°13'1212.9
2015-Feb-26 05:33S 33°09' E 152°03'6 5.6
2015-Feb-26 04:31S 33°05' E 151°57'1 1.0
2015-Feb-26 03:31S 33°06' E 151°58'1 1.2
2015-Feb-26 02:31S 33°07' E 151°59'1 1.2
2015-Feb-26 01:31S 33°08' E 151°60'1 1.4
2015-Feb-26 00:31S 33°09' E 152°01'1 1.4
2015-Feb-25 23:31S 33°11' E 152°01'1 0.7
2015-Feb-25 22:31S 33°11' E 152°01'1 1.0
2015-Feb-25 21:31S 33°12' E 152°02'1 1.2
2015-Feb-25 20:31S 33°13' E 152°03'1 1.3
2015-Feb-25 19:31S 33°13' E 152°05'1 1.2
2015-Feb-25 18:28S 33°13' E 152°06'1 0.9
2015-Feb-25 17:28S 33°13' E 152°07'1 0.7
2015-Feb-25 16:31S 33°13' E 152°08'1 0.8
2015-Feb-25 15:31S 33°14' E 152°09'1 1.0
2015-Feb-25 14:31S 33°14' E 152°10'1 1.0
2015-Feb-25 13:31S 33°15' E 152°11'1 1.0
2015-Feb-25 12:31S 33°15' E 152°12'1 0.9
2015-Feb-25 11:31S 33°16' E 152°13'1 0.8
2015-Feb-25 10:31S 33°16' E 152°13'4 3.6
2015-Feb-25 09:30S 33°20' E 152°13'  

Dump ship's entire track history